Time;durP1;ratioP1;P1;durP2;ratioP2;P2;SDS_P1;SDS_P2;PMS_P1;PMS_P2;Temp;Humidity;BMP_temperature;BMP_pressure;BME280_temperature;BME280_humidity;BME280_pressure;Samples;Min_cycle;Max_cycle;Signal;HPM_P1;HPM_P2
2021/09/06 00:03:23;;;;;;;0.00;0.00;;;;;;;;;;10390016;28;20194;-71
2021/09/06 00:08:28;;;;;;;0.03;0.03;;;;;;;;;;10396264;28;20315;-70
2021/09/06 00:13:31;;;;;;;0.00;0.00;;;;;;;;;;10402746;28;20204;-71
2021/09/06 00:18:33;;;;;;;0.00;0.00;;;;;;;;;;10404690;28;20824;-70
2021/09/06 00:23:38;;;;;;;0.10;0.10;;;;;;;;;;10402576;28;20216;-71
2021/09/06 00:28:43;;;;;;;0.00;0.00;;;;;;;;;;10402286;28;20201;-71
2021/09/06 00:33:46;;;;;;;0.00;0.00;;;;;;;;;;10398594;28;20276;-69
2021/09/06 00:38:50;;;;;;;0.07;0.07;;;;;;;;;;10400163;28;20620;-69
2021/09/06 00:43:53;;;;;;;0.00;0.00;;;;;;;;;;10402143;28;20198;-71
2021/09/06 00:48:56;;;;;;;0.00;0.00;;;;;;;;;;10400860;28;20312;-70
2021/09/06 00:54:00;;;;;;;0.00;0.00;;;;;;;;;;10397193;28;20238;-69
2021/09/06 00:59:03;;;;;;;0.10;0.10;;;;;;;;;;10402381;28;20555;-71
2021/09/06 01:04:06;;;;;;;0.07;0.07;;;;;;;;;;10377268;28;20249;-70
2021/09/06 01:09:10;;;;;;;0.00;0.00;;;;;;;;;;10403241;28;20241;-68
2021/09/06 01:14:33;;;;;;;0.00;0.00;;;;;;;;;;10400257;28;20225;-70
2021/09/06 01:19:56;;;;;;;0.00;0.00;;;;;;;;;;10401393;28;20203;-70
2021/09/06 01:25:16;;;;;;;0.00;0.00;;;;;;;;;;10399332;28;20235;-70
2021/09/06 01:30:40;;;;;;;0.00;0.00;;;;;;;;;;10397886;28;20207;-71
2021/09/06 01:35:43;;;;;;;0.00;0.00;;;;;;;;;;10396649;28;20230;-69
2021/09/06 01:40:46;;;;;;;0.00;0.00;;;;;;;;;;10400575;28;20638;-68
2021/09/06 01:45:50;;;;;;;0.00;0.00;;;;;;;;;;10400173;28;20244;-71
2021/09/06 01:50:53;;;;;;;0.00;0.00;;;;;;;;;;10400637;28;20677;-70
2021/09/06 01:55:55;;;;;;;0.00;0.00;;;;;;;;;;10399339;28;20217;-71
2021/09/06 02:00:59;;;;;;;0.00;0.00;;;;;;;;;;10387553;28;21452;-70
2021/09/06 02:06:03;;;;;;;0.00;0.00;;;;;;;;;;10400023;28;20299;-71
2021/09/06 02:11:05;;;;;;;0.00;0.00;;;;;;;;;;10402136;28;20209;-71
2021/09/06 02:16:10;;;;;;;0.00;0.00;;;;;;;;;;10404805;28;20255;-71
2021/09/06 02:21:13;;;;;;;0.10;0.10;;;;;;;;;;10399760;28;20197;-72
2021/09/06 02:26:15;;;;;;;0.00;0.00;;;;;;;;;;10398179;28;20284;-70
2021/09/06 02:31:20;;;;;;;0.00;0.00;;;;;;;;;;10399909;28;20339;-70
2021/09/06 02:36:22;;;;;;;0.00;0.00;;;;;;;;;;10399925;28;20265;-71
2021/09/06 02:41:25;;;;;;;0.10;0.10;;;;;;;;;;10400147;28;20202;-72
2021/09/06 02:46:29;;;;;;;0.10;0.10;;;;;;;;;;10400929;28;20245;-71
2021/09/06 02:51:32;;;;;;;0.00;0.00;;;;;;;;;;10393559;28;20304;-71
2021/09/06 02:56:35;;;;;;;0.00;0.00;;;;;;;;;;10399215;28;20221;-70
2021/09/06 03:01:39;;;;;;;0.00;0.00;;;;;;;;;;10393418;28;20510;-69
2021/09/06 03:06:42;;;;;;;0.10;0.10;;;;;;;;;;10394823;28;20312;-71
2021/09/06 03:11:45;;;;;;;0.00;0.00;;;;;;;;;;10395582;28;20720;-70
2021/09/06 03:16:50;;;;;;;0.00;0.00;;;;;;;;;;10407934;28;20213;-69
2021/09/06 03:21:53;;;;;;;0.00;0.00;;;;;;;;;;10404687;28;20192;-71
2021/09/06 03:26:56;;;;;;;0.00;0.00;;;;;;;;;;10406326;28;20217;-70
2021/09/06 03:32:00;;;;;;;0.00;0.00;;;;;;;;;;10404973;28;20210;-68
2021/09/06 03:37:03;;;;;;;0.00;0.00;;;;;;;;;;10404146;28;20229;-69
2021/09/06 03:42:06;;;;;;;0.00;0.00;;;;;;;;;;10405932;28;20693;-71
2021/09/06 03:47:10;;;;;;;0.00;0.00;;;;;;;;;;10405852;28;20252;-69
2021/09/06 03:52:13;;;;;;;0.07;0.07;;;;;;;;;;10403813;28;20327;-70
2021/09/06 03:57:16;;;;;;;0.00;0.00;;;;;;;;;;10404646;28;20257;-71
2021/09/06 04:02:20;;;;;;;0.10;0.10;;;;;;;;;;10401561;28;20272;-70
2021/09/06 04:07:23;;;;;;;0.00;0.00;;;;;;;;;;10404827;28;20225;-71
2021/09/06 04:12:26;;;;;;;0.00;0.00;;;;;;;;;;10403855;28;20238;-70
2021/09/06 04:17:30;;;;;;;0.00;0.00;;;;;;;;;;10404277;28;20214;-71
2021/09/06 04:22:33;;;;;;;0.00;0.00;;;;;;;;;;10399752;28;20201;-69
2021/09/06 04:27:36;;;;;;;0.00;0.00;;;;;;;;;;10403781;28;20264;-69
2021/09/06 04:32:40;;;;;;;0.00;0.00;;;;;;;;;;10403136;28;20271;-69
2021/09/06 04:37:43;;;;;;;0.00;0.00;;;;;;;;;;10405671;28;20565;-71
2021/09/06 04:42:46;;;;;;;0.00;0.00;;;;;;;;;;10402969;28;20510;-70
2021/09/06 04:47:50;;;;;;;0.00;0.00;;;;;;;;;;10402319;28;20211;-71
2021/09/06 04:52:55;;;;;;;0.00;0.00;;;;;;;;;;10401450;28;20356;-71
2021/09/06 04:57:58;;;;;;;0.00;0.00;;;;;;;;;;10401068;28;20217;-69
2021/09/06 05:03:02;;;;;;;0.00;0.00;;;;;;;;;;10406061;28;20267;-71
2021/09/06 05:08:05;;;;;;;0.10;0.10;;;;;;;;;;10402487;28;20214;-70
2021/09/06 05:13:08;;;;;;;0.00;0.00;;;;;;;;;;10399303;28;20218;-71
2021/09/06 05:18:12;;;;;;;0.00;0.00;;;;;;;;;;10390966;28;20297;-71
2021/09/06 05:23:15;;;;;;;0.00;0.00;;;;;;;;;;10397379;28;20614;-71
2021/09/06 05:28:18;;;;;;;0.00;0.00;;;;;;;;;;10394096;28;20245;-70
2021/09/06 05:33:22;;;;;;;0.00;0.00;;;;;;;;;;10395680;28;20261;-71
2021/09/06 05:38:25;;;;;;;0.00;0.00;;;;;;;;;;10398765;28;20228;-70
2021/09/06 05:43:28;;;;;;;0.10;0.10;;;;;;;;;;10397794;28;20251;-70
2021/09/06 05:48:32;;;;;;;0.00;0.00;;;;;;;;;;10393927;28;20334;-71
2021/09/06 05:53:35;;;;;;;0.00;0.00;;;;;;;;;;10394335;28;20263;-70
2021/09/06 05:58:38;;;;;;;0.00;0.00;;;;;;;;;;10394078;28;20225;-71
2021/09/06 06:03:42;;;;;;;0.00;0.00;;;;;;;;;;10394302;28;20228;-72
2021/09/06 06:08:45;;;;;;;0.00;0.00;;;;;;;;;;10393515;28;20198;-70
2021/09/06 06:13:48;;;;;;;0.00;0.00;;;;;;;;;;10397693;28;20241;-70
2021/09/06 06:18:52;;;;;;;0.00;0.00;;;;;;;;;;10384946;28;20293;-70
2021/09/06 06:23:55;;;;;;;0.00;0.00;;;;;;;;;;10399555;28;20572;-71
2021/09/06 06:28:58;;;;;;;0.00;0.00;;;;;;;;;;10392079;28;20258;-70
2021/09/06 06:34:03;;;;;;;0.10;0.10;;;;;;;;;;10385812;28;20229;-70
2021/09/06 06:39:06;;;;;;;0.10;0.10;;;;;;;;;;10389969;28;20272;-71
2021/09/06 06:44:09;;;;;;;0.10;0.10;;;;;;;;;;10393675;28;20241;-71
2021/09/06 06:49:13;;;;;;;0.20;0.20;;;;;;;;;;10396701;28;20194;-72
2021/09/06 06:54:16;;;;;;;0.20;0.20;;;;;;;;;;10394462;28;20294;-71
2021/09/06 06:59:18;;;;;;;0.20;0.20;;;;;;;;;;10403760;28;20194;-70
2021/09/06 07:04:23;;;;;;;0.20;0.20;;;;;;;;;;10408185;28;20222;-70
2021/09/06 07:09:25;;;;;;;0.20;0.20;;;;;;;;;;10408611;28;20202;-70
2021/09/06 07:14:28;;;;;;;0.20;0.20;;;;;;;;;;10405856;28;20342;-71
2021/09/06 07:19:32;;;;;;;0.30;0.30;;;;;;;;;;10401740;28;20210;-71
2021/09/06 07:24:35;;;;;;;0.30;0.30;;;;;;;;;;10401885;28;20225;-72
2021/09/06 07:29:38;;;;;;;0.30;0.30;;;;;;;;;;10402288;28;20704;-69
2021/09/06 07:34:42;;;;;;;0.40;0.40;;;;;;;;;;10403246;28;20567;-71
2021/09/06 07:39:48;;;;;;;0.40;0.40;;;;;;;;;;10403662;28;20657;-71
2021/09/06 07:44:51;;;;;;;0.40;0.40;;;;;;;;;;10403261;28;20249;-72
2021/09/06 07:49:57;;;;;;;0.40;0.40;;;;;;;;;;10402774;28;20685;-71
2021/09/06 07:55:00;;;;;;;0.40;0.40;;;;;;;;;;10397881;28;20216;-71
2021/09/06 08:00:03;;;;;;;0.40;0.40;;;;;;;;;;10394470;28;20285;-69
2021/09/06 08:05:08;;;;;;;0.40;0.40;;;;;;;;;;10405916;28;20214;-72
2021/09/06 08:10:12;;;;;;;0.50;0.50;;;;;;;;;;10397561;28;20198;-72
2021/09/06 08:15:15;;;;;;;0.50;0.50;;;;;;;;;;10401247;28;20681;-71
2021/09/06 08:20:19;;;;;;;0.55;0.55;;;;;;;;;;10402462;28;20194;-71
2021/09/06 08:25:22;;;;;;;0.60;0.60;;;;;;;;;;10400965;28;20569;-72
2021/09/06 08:30:25;;;;;;;0.60;0.60;;;;;;;;;;10395293;28;20236;-71
2021/09/06 08:35:29;;;;;;;0.60;0.60;;;;;;;;;;10403671;28;20317;-71
2021/09/06 08:40:32;;;;;;;0.60;0.60;;;;;;;;;;10396282;28;20197;-71
2021/09/06 08:45:35;;;;;;;0.70;0.70;;;;;;;;;;10396523;28;20248;-71
2021/09/06 08:50:42;;;;;;;0.75;0.75;;;;;;;;;;10399210;28;20242;-71
2021/09/06 08:55:45;;;;;;;0.80;0.80;;;;;;;;;;10395653;28;20705;-71
2021/09/06 09:01:07;;;;;;;0.88;0.88;;;;;;;;;;10391996;28;20196;-71
2021/09/06 09:06:11;;;;;;;0.90;0.90;;;;;;;;;;10394841;28;20323;-70
2021/09/06 09:16:56;;;;;;;0.20;0.20;;;;;;;;;;10622960;27;20611;-63
2021/09/06 09:21:59;;;;;;;0.20;0.20;;;;;;;;;;10533792;28;62538;-55
2021/09/06 09:27:03;;;;;;;0.20;0.20;;;;;;;;;;10455900;27;20422;-56
2021/09/06 09:32:08;;;;;;;0.20;0.20;;;;;;;;;;10484730;27;20858;-66
